createdAt,value
2023-04-02T00:02:09.053Z,34.93
2023-04-02T00:04:38.194Z,34.67
2023-04-02T00:07:30.989Z,34.87
2023-04-02T00:09:59.381Z,35.26
2023-04-02T00:12:29.203Z,35.38
2023-04-02T00:16:25.120Z,45.73
2023-04-02T00:18:58.235Z,43.15
2023-04-02T00:21:33.735Z,42.14
2023-04-02T00:24:03.127Z,41.56
2023-04-02T00:26:36.891Z,40.72
2023-04-02T00:29:05.834Z,40.21
2023-04-02T00:31:38.283Z,40.13
2023-04-02T00:34:07.543Z,39.66
2023-04-02T00:36:35.506Z,39.63
2023-04-02T00:39:11.165Z,39.80
2023-04-02T00:41:46.712Z,40.10
2023-04-02T00:44:16.519Z,39.36
2023-04-02T00:46:49.662Z,39.43
2023-04-02T00:49:23.985Z,39.25
2023-04-02T00:51:58.084Z,39.15
2023-04-02T00:54:27.747Z,38.99
2023-04-02T00:56:56.475Z,38.84
2023-04-02T00:59:33.525Z,39.49
2023-04-02T01:02:19.878Z,39.83
2023-04-02T01:05:02.333Z,39.14
2023-04-02T01:07:52.670Z,39.28
2023-04-02T01:10:30.365Z,39.92
2023-04-02T01:13:08.429Z,39.77
2023-04-02T01:15:42.159Z,39.19
2023-04-02T01:18:13.987Z,38.52
2023-04-02T01:21:12.987Z,38.68
2023-04-02T01:23:48.018Z,38.26
2023-04-02T01:26:39.730Z,38.48
2023-04-02T01:29:14.091Z,39.32
2023-04-02T01:31:42.496Z,39.01
2023-04-02T01:34:13.977Z,38.37
2023-04-02T01:37:01.840Z,37.90
2023-04-02T01:39:42.126Z,38.81
2023-04-02T01:42:29.118Z,39.23
2023-04-02T01:45:14.820Z,39.50
2023-04-02T01:47:43.999Z,39.54
2023-04-02T01:50:21.268Z,39.14
2023-04-02T01:52:55.489Z,39.35
2023-04-02T01:55:31.370Z,39.40
2023-04-02T01:58:01.288Z,39.35
2023-04-02T02:00:30.450Z,39.01
2023-04-02T02:03:00.098Z,39.56
2023-04-02T02:05:28.333Z,39.44
2023-04-02T02:07:57.334Z,39.16
2023-04-02T02:10:34.358Z,39.59
2023-04-02T02:13:02.416Z,40.48
2023-04-02T02:15:32.134Z,39.65
2023-04-02T02:18:03.230Z,39.52
2023-04-02T02:20:31.326Z,39.73
2023-04-02T02:23:01.119Z,39.87
2023-04-02T02:25:31.924Z,39.39
2023-04-02T02:28:08.652Z,39.91
2023-04-02T02:30:57.382Z,39.77
2023-04-02T02:33:45.118Z,39.15
2023-04-02T02:36:20.796Z,39.71
2023-04-02T02:38:58.070Z,40.25
2023-04-02T02:41:54.670Z,40.29
2023-04-02T02:44:27.706Z,40.35
2023-04-02T02:47:14.457Z,40.40
2023-04-02T02:49:45.105Z,40.25
2023-04-02T02:52:20.693Z,40.40
2023-04-02T02:55:15.584Z,39.14
2023-04-02T02:58:06.907Z,38.91
2023-04-02T03:00:40.804Z,38.24
2023-04-02T03:03:12.518Z,38.22
2023-04-02T03:05:41.438Z,38.13
2023-04-02T03:08:19.414Z,39.04
2023-04-02T03:10:59.004Z,38.96
2023-04-02T03:13:33.408Z,39.16
2023-04-02T03:16:11.568Z,38.93
2023-04-02T03:18:47.984Z,39.08
2023-04-02T03:21:24.862Z,39.18
2023-04-02T03:24:05.224Z,38.82
2023-04-02T03:26:38.679Z,38.90
2023-04-02T03:29:28.000Z,39.22
2023-04-02T03:32:16.834Z,39.13
2023-04-02T03:35:01.197Z,38.58
2023-04-02T03:37:33.070Z,38.47
2023-04-02T03:40:08.952Z,38.86
2023-04-02T03:42:46.510Z,38.77
2023-04-02T03:45:26.868Z,38.80
2023-04-02T03:48:05.979Z,38.79
2023-04-02T03:50:46.431Z,38.91
2023-04-02T03:53:15.452Z,39.36
2023-04-02T03:55:44.655Z,39.28
2023-04-02T03:58:16.640Z,39.72
2023-04-02T04:01:04.345Z,40.01
2023-04-02T04:03:37.034Z,39.83
2023-04-02T04:06:12.272Z,39.53
2023-04-02T04:08:56.118Z,39.74
2023-04-02T04:11:31.387Z,39.19
2023-04-02T04:14:21.062Z,39.34
2023-04-02T04:17:04.870Z,39.43
2023-04-02T04:19:45.544Z,39.27
2023-04-02T04:22:17.944Z,39.14
2023-04-02T04:24:47.738Z,38.39
2023-04-02T04:27:42.929Z,39.03
2023-04-02T04:30:24.539Z,39.03
2023-04-02T04:32:58.377Z,39.42
2023-04-02T04:35:29.785Z,39.58
2023-04-02T04:38:04.907Z,39.61
2023-04-02T04:40:38.133Z,39.97
2023-04-02T04:43:08.140Z,39.81
2023-04-02T04:45:50.799Z,39.89
2023-04-02T04:48:26.909Z,39.85
2023-04-02T04:51:09.407Z,40.30
2023-04-02T04:53:47.908Z,39.85
2023-04-02T04:56:23.655Z,39.90
2023-04-02T04:59:02.781Z,39.33
2023-04-02T05:01:38.452Z,39.06
2023-04-02T05:04:30.317Z,38.90
2023-04-02T05:07:19.347Z,39.27
2023-04-02T05:10:17.320Z,39.54
2023-04-02T05:12:51.131Z,38.79
2023-04-02T05:15:53.314Z,38.63
2023-04-02T05:18:37.533Z,38.98
2023-04-02T05:21:21.123Z,39.10
2023-04-02T05:24:01.642Z,39.04
2023-04-02T05:26:32.886Z,39.36
2023-04-02T05:29:36.759Z,39.19
2023-04-02T05:32:17.519Z,39.52
2023-04-02T05:34:51.713Z,39.53
2023-04-02T05:37:21.696Z,39.03
2023-04-02T05:39:55.891Z,38.50
2023-04-02T05:42:27.972Z,38.33
2023-04-02T05:45:39.152Z,38.05
2023-04-02T05:48:18.908Z,38.25
2023-04-02T05:50:52.018Z,38.21
2023-04-02T05:53:34.878Z,38.36
2023-04-02T05:56:11.915Z,38.62
2023-04-02T05:58:46.500Z,38.49
2023-04-02T06:01:41.308Z,38.65
2023-04-02T06:04:21.096Z,38.55
2023-04-02T06:07:14.796Z,38.57
2023-04-02T06:10:08.666Z,38.49
2023-04-02T06:12:48.991Z,38.13
2023-04-02T06:15:21.645Z,38.13
2023-04-02T06:17:52.642Z,38.44
2023-04-02T06:20:21.479Z,37.91
2023-04-02T06:22:52.009Z,37.63
2023-04-02T06:25:40.154Z,37.74
2023-04-02T06:28:19.039Z,37.53
2023-04-02T06:30:54.502Z,37.38
2023-04-02T06:33:25.126Z,37.87
2023-04-02T06:35:54.466Z,37.97
2023-04-02T06:38:32.881Z,37.97
2023-04-02T06:41:05.752Z,37.94
2023-04-02T06:43:53.703Z,37.88
2023-04-02T06:46:51.761Z,37.50
2023-04-02T06:49:26.144Z,38.35
2023-04-02T06:52:00.889Z,38.36
2023-04-02T06:54:30.518Z,38.55
2023-04-02T06:57:02.812Z,38.51
2023-04-02T06:59:38.062Z,38.07
2023-04-02T07:02:30.993Z,38.19
2023-04-02T07:05:04.294Z,37.91
2023-04-02T07:07:34.148Z,38.00
2023-04-02T07:10:06.065Z,37.72
2023-04-02T07:12:34.165Z,37.63
2023-04-02T07:15:05.398Z,37.58
2023-04-02T07:17:33.961Z,37.49
2023-04-02T07:20:02.039Z,37.16
2023-04-02T07:22:30.931Z,37.16
2023-04-02T07:25:02.227Z,37.67
2023-04-02T07:27:33.910Z,37.02
2023-04-02T07:30:01.951Z,37.52
2023-04-02T07:32:31.940Z,37.53
2023-04-02T07:35:00.486Z,37.41
2023-04-02T07:37:29.448Z,37.65
2023-04-02T07:39:59.374Z,37.80
2023-04-02T07:42:29.710Z,37.76
2023-04-02T07:44:57.646Z,37.88
2023-04-02T07:47:25.863Z,37.88
2023-04-02T07:49:54.649Z,37.75
2023-04-02T07:52:23.039Z,37.75
2023-04-02T07:54:51.882Z,38.43
2023-04-02T07:57:20.949Z,38.34
2023-04-02T07:59:49.254Z,37.89
2023-04-02T08:02:21.305Z,37.49
2023-04-02T08:04:51.183Z,37.33
2023-04-02T08:07:19.658Z,37.38
2023-04-02T08:09:47.669Z,37.23
2023-04-02T08:12:17.024Z,37.68
2023-04-02T08:14:45.956Z,37.58
2023-04-02T08:17:13.919Z,37.97
2023-04-02T08:19:54.211Z,37.73
2023-04-02T08:22:23.326Z,37.58
2023-04-02T08:24:51.847Z,38.31
2023-04-02T08:27:19.995Z,38.04
2023-04-02T08:29:48.065Z,38.53
2023-04-02T08:32:16.855Z,38.11
2023-04-02T08:34:45.530Z,37.91
2023-04-02T08:37:13.708Z,37.76
2023-04-02T08:39:42.097Z,37.93
2023-04-02T08:42:22.223Z,37.70
2023-04-02T08:45:25.150Z,37.91
2023-04-02T08:47:56.237Z,37.80
2023-04-02T08:50:36.451Z,37.79
2023-04-02T08:53:31.862Z,37.76
2023-04-02T08:56:10.024Z,37.33
2023-04-02T08:58:43.080Z,36.85
2023-04-02T09:01:36.885Z,36.42
2023-04-02T09:04:07.367Z,36.61
2023-04-02T09:06:38.538Z,36.80
2023-04-02T09:09:09.116Z,36.99
2023-04-02T09:11:49.254Z,37.03
2023-04-02T09:14:22.995Z,36.56
2023-04-02T09:16:56.053Z,36.51
2023-04-02T09:19:36.688Z,37.41
2023-04-02T09:22:20.878Z,37.09
2023-04-02T09:24:53.505Z,37.47
2023-04-02T09:27:29.727Z,36.68
2023-04-02T09:30:03.452Z,36.74
2023-04-02T09:32:51.388Z,37.91
2023-04-02T09:35:27.644Z,38.56
2023-04-02T09:38:19.638Z,38.61
2023-04-02T09:40:55.319Z,38.39
2023-04-02T09:43:34.770Z,38.08
2023-04-02T09:46:14.180Z,37.64
2023-04-02T09:49:03.048Z,37.41
2023-04-02T09:51:34.471Z,37.93
2023-04-02T09:54:06.078Z,38.54
2023-04-02T09:56:37.400Z,38.39
2023-04-02T09:59:16.830Z,37.98
2023-04-02T10:01:48.145Z,38.34
2023-04-02T10:04:45.516Z,38.48
2023-04-02T10:07:40.070Z,37.84
2023-04-02T10:10:32.173Z,37.78
2023-04-02T10:13:13.523Z,37.71
2023-04-02T10:15:58.761Z,37.66
2023-04-02T10:18:38.877Z,37.47
2023-04-02T10:21:07.149Z,38.02
2023-04-02T10:23:36.329Z,37.48
2023-04-02T10:26:04.283Z,37.88
2023-04-02T10:29:01.239Z,38.77
2023-04-02T10:31:58.050Z,38.30
2023-04-02T10:34:43.713Z,38.53
2023-04-02T10:37:39.597Z,38.30
2023-04-02T10:40:32.682Z,37.75
2023-04-02T10:43:38.956Z,37.62
2023-04-02T10:46:16.567Z,36.99
2023-04-02T10:49:10.929Z,36.97
2023-04-02T10:51:48.883Z,37.27
2023-04-02T10:54:45.596Z,37.75
2023-04-02T10:57:16.965Z,37.80
2023-04-02T10:59:49.908Z,37.86
2023-04-02T11:02:29.809Z,37.78
2023-04-02T11:04:59.843Z,37.96
2023-04-02T11:07:31.354Z,38.32
2023-04-02T11:09:59.630Z,38.02
2023-04-02T11:12:42.215Z,37.67
2023-04-02T11:15:18.584Z,37.36
2023-04-02T11:17:46.822Z,37.11
2023-04-02T11:20:57.669Z,36.83
2023-04-02T11:23:28.082Z,36.67
2023-04-02T11:26:38.379Z,36.60
2023-04-02T11:29:15.823Z,36.95
2023-04-02T11:31:44.199Z,37.09
2023-04-02T11:34:41.803Z,37.04
2023-04-02T11:37:11.068Z,36.90
2023-04-02T11:39:47.267Z,36.49
2023-04-02T11:42:18.172Z,37.07
2023-04-02T11:44:46.329Z,37.05
2023-04-02T11:47:19.424Z,36.69
2023-04-02T11:50:01.444Z,36.84
2023-04-02T11:53:06.960Z,36.96
2023-04-02T11:55:40.573Z,36.55
2023-04-02T11:58:26.965Z,36.49
2023-04-02T12:01:01.292Z,36.51
2023-04-02T12:03:46.349Z,36.22
2023-04-02T12:06:28.143Z,36.31
2023-04-02T12:09:18.942Z,36.17
2023-04-02T12:11:47.613Z,36.17
2023-04-02T12:14:38.267Z,36.37
2023-04-02T12:17:18.394Z,36.23
2023-04-02T12:19:50.376Z,36.46
2023-04-02T12:22:20.960Z,36.73
2023-04-02T12:24:50.356Z,36.60
2023-04-02T12:27:22.852Z,36.54
2023-04-02T12:29:52.697Z,36.98
2023-04-02T12:33:23.220Z,45.90
2023-04-02T12:35:55.577Z,42.31
2023-04-02T12:38:33.923Z,41.68
2023-04-02T12:41:04.497Z,41.19
2023-04-02T12:43:34.500Z,41.28
2023-04-02T12:46:04.880Z,41.43
2023-04-02T12:48:33.815Z,41.53
2023-04-02T12:51:02.825Z,41.08
2023-04-02T12:53:35.493Z,41.12
2023-04-02T12:56:04.595Z,41.00
2023-04-02T12:58:40.872Z,40.55
2023-04-02T13:01:28.983Z,40.55
2023-04-02T13:04:04.606Z,40.33
2023-04-02T13:06:34.722Z,40.02
2023-04-02T13:09:05.128Z,40.04
2023-04-02T13:11:39.840Z,40.12
2023-04-02T13:14:16.816Z,40.05
2023-04-02T13:16:47.058Z,39.78
2023-04-02T13:19:34.234Z,39.47
2023-04-02T13:22:02.970Z,38.79
2023-04-02T13:24:32.639Z,38.86
2023-04-02T13:27:02.547Z,38.75
2023-04-02T13:29:32.599Z,38.89
2023-04-02T13:32:06.540Z,39.04
2023-04-02T13:34:34.749Z,39.00
2023-04-02T13:37:03.648Z,39.12
2023-04-02T13:39:32.976Z,39.21
2023-04-02T13:42:02.895Z,39.51
2023-04-02T13:44:32.803Z,39.29
2023-04-02T13:47:01.388Z,39.28
2023-04-02T13:49:29.774Z,39.09
2023-04-02T13:52:04.296Z,38.98
2023-04-02T13:54:44.237Z,38.53
2023-04-02T13:57:12.388Z,38.60
2023-04-02T13:59:40.522Z,38.64
2023-04-02T14:02:11.412Z,38.87
2023-04-02T14:04:43.373Z,38.99
2023-04-02T14:07:36.706Z,38.74
2023-04-02T14:10:40.604Z,38.71
2023-04-02T14:13:30.198Z,39.20
2023-04-02T14:16:28.798Z,38.44
2023-04-02T14:19:10.215Z,38.20
2023-04-02T14:21:41.576Z,37.97
2023-04-02T14:24:17.299Z,37.90
2023-04-02T14:27:04.372Z,37.74
2023-04-02T14:29:38.451Z,37.69
2023-04-02T14:32:09.850Z,37.80
2023-04-02T14:34:54.574Z,37.55
2023-04-02T14:37:42.088Z,38.75
2023-04-02T14:40:27.468Z,39.31
2023-04-02T14:43:17.028Z,39.44
2023-04-02T14:46:01.720Z,39.48
2023-04-02T14:48:50.388Z,39.59
2023-04-02T14:51:41.782Z,39.31
2023-04-02T14:54:31.961Z,38.89
2023-04-02T14:57:18.778Z,38.99
2023-04-02T15:00:05.709Z,38.31
2023-04-02T15:03:10.606Z,37.91
2023-04-02T15:05:49.844Z,37.43
2023-04-02T15:08:27.381Z,36.59
2023-04-02T15:11:08.706Z,38.04
2023-04-02T15:13:38.433Z,39.11
2023-04-02T15:16:26.793Z,38.81
2023-04-02T15:18:56.690Z,38.76
2023-04-02T15:21:55.842Z,39.01
2023-04-02T15:24:40.701Z,38.84
2023-04-02T15:27:25.100Z,38.92
2023-04-02T15:30:09.158Z,39.13
2023-04-02T15:32:39.783Z,39.83
2023-04-02T15:35:27.525Z,39.29
2023-04-02T15:38:02.193Z,39.11
2023-04-02T15:41:07.195Z,39.51
2023-04-02T15:43:48.675Z,39.30
2023-04-02T15:46:41.746Z,39.35
2023-04-02T15:49:25.246Z,39.08
2023-04-02T15:52:18.355Z,39.23
2023-04-02T15:54:54.662Z,39.03
2023-04-02T15:57:39.406Z,38.56
2023-04-02T16:00:31.269Z,37.44
2023-04-02T16:03:42.467Z,36.78
2023-04-02T16:06:28.042Z,37.76
2023-04-02T16:09:07.696Z,37.97
2023-04-02T16:11:36.801Z,37.61
2023-04-02T16:14:12.048Z,37.71
2023-04-02T16:16:40.072Z,37.80
2023-04-02T16:19:27.553Z,37.62
2023-04-02T16:22:24.578Z,37.59
2023-04-02T16:25:02.187Z,37.99
2023-04-02T16:27:43.144Z,37.97
2023-04-02T16:30:27.935Z,39.32
2023-04-02T16:33:03.026Z,39.15
2023-04-02T16:36:14.067Z,39.29
2023-04-02T16:38:58.908Z,38.59
2023-04-02T16:41:40.582Z,38.60
2023-04-02T16:44:26.931Z,38.18
2023-04-02T16:47:04.357Z,37.75
2023-04-02T16:49:38.696Z,37.39
2023-04-02T16:52:39.582Z,36.84
2023-04-02T16:55:19.671Z,36.97
2023-04-02T16:58:18.064Z,37.50
2023-04-02T17:01:08.632Z,37.54
2023-04-02T17:03:46.496Z,37.38
2023-04-02T17:06:27.647Z,36.53
2023-04-02T17:08:58.605Z,36.76
2023-04-02T17:11:31.673Z,36.50
2023-04-02T17:14:27.218Z,36.15
2023-04-02T17:16:59.278Z,35.54
2023-04-02T17:19:27.403Z,35.33
2023-04-02T17:22:01.096Z,35.41
2023-04-02T17:24:47.924Z,35.44
2023-04-02T17:27:27.306Z,35.23
2023-04-02T17:30:05.494Z,35.33
2023-04-02T17:32:35.082Z,35.27
2023-04-02T17:35:25.310Z,35.47
2023-04-02T17:38:20.373Z,35.33
2023-04-02T17:40:58.580Z,35.74
2023-04-02T17:43:44.732Z,36.03
2023-04-02T17:46:34.792Z,36.00
2023-04-02T17:49:07.479Z,35.42
2023-04-02T17:51:39.941Z,35.65
2023-04-02T17:54:21.727Z,35.66
2023-04-02T17:57:05.006Z,36.45
2023-04-02T17:59:42.771Z,36.04
2023-04-02T18:02:26.410Z,36.06
2023-04-02T18:05:09.996Z,35.92
2023-04-02T18:08:18.399Z,35.55
2023-04-02T18:11:09.353Z,35.42
2023-04-02T18:13:59.721Z,35.68
2023-04-02T18:16:32.523Z,35.52
2023-04-02T18:19:03.975Z,35.67
2023-04-02T18:22:17.544Z,35.65
2023-04-02T18:25:14.973Z,35.72
2023-04-02T18:28:24.740Z,35.58
2023-04-02T18:31:03.779Z,35.19
2023-04-02T18:33:55.407Z,34.94
2023-04-02T18:36:26.574Z,34.90
2023-04-02T18:39:06.468Z,35.37
2023-04-02T18:42:04.575Z,35.69
2023-04-02T18:44:42.937Z,35.65
2023-04-02T18:47:23.247Z,35.69
2023-04-02T18:49:54.272Z,35.77
2023-04-02T18:52:23.242Z,35.63
2023-04-02T18:55:00.529Z,36.24
2023-04-02T18:57:31.384Z,36.35
2023-04-02T19:00:12.520Z,36.06
2023-04-02T19:02:47.225Z,35.42
2023-04-02T19:05:20.631Z,35.57
2023-04-02T19:07:54.490Z,35.82
2023-04-02T19:10:37.383Z,36.54
2023-04-02T19:13:17.298Z,35.70
2023-04-02T19:15:59.416Z,35.59
2023-04-02T19:18:34.475Z,35.73
2023-04-02T19:21:17.124Z,35.69
2023-04-02T19:24:00.067Z,35.55
2023-04-02T19:26:51.420Z,35.50
2023-04-02T19:29:23.812Z,35.77
2023-04-02T19:32:29.946Z,35.48
2023-04-02T19:35:17.376Z,35.17
2023-04-02T19:38:07.127Z,34.69
2023-04-02T19:40:48.460Z,34.67
2023-04-02T19:43:17.638Z,34.96
2023-04-02T19:45:49.211Z,35.07
2023-04-02T19:48:23.183Z,34.75
2023-04-02T19:50:51.636Z,35.32
2023-04-02T19:53:20.377Z,35.11
2023-04-02T19:55:48.744Z,34.70
2023-04-02T19:58:28.405Z,35.05
2023-04-02T20:00:56.912Z,34.90
2023-04-02T20:03:25.766Z,34.93
2023-04-02T20:05:57.929Z,35.05
2023-04-02T20:08:28.035Z,35.00
2023-04-02T20:10:58.990Z,35.29
2023-04-02T20:13:26.966Z,35.26
2023-04-02T20:15:59.022Z,34.29
2023-04-02T20:18:27.793Z,34.10
2023-04-02T20:21:06.091Z,34.23
2023-04-02T20:23:35.940Z,34.36
2023-04-02T20:26:04.179Z,35.02
2023-04-02T20:28:33.230Z,34.53
2023-04-02T20:31:11.702Z,34.83
2023-04-02T20:33:40.282Z,34.40
2023-04-02T20:36:11.564Z,34.02
2023-04-02T20:38:39.907Z,34.05
2023-04-02T20:41:08.321Z,34.12
2023-04-02T20:43:37.720Z,33.98
2023-04-02T20:46:08.337Z,33.97
2023-04-02T20:48:38.419Z,34.44
2023-04-02T20:51:09.990Z,34.54
2023-04-02T20:53:38.550Z,34.33
2023-04-02T20:56:08.224Z,34.16
2023-04-02T20:58:37.338Z,34.43
2023-04-02T21:01:23.258Z,34.80
2023-04-02T21:04:02.258Z,35.00
2023-04-02T21:06:32.613Z,35.11
2023-04-02T21:09:07.726Z,34.97
2023-04-02T21:11:37.321Z,35.49
2023-04-02T21:14:05.551Z,35.64
2023-04-02T21:16:33.957Z,35.33
2023-04-02T21:19:07.043Z,35.62
2023-04-02T21:21:36.337Z,35.93
2023-04-02T21:24:08.709Z,35.71
2023-04-02T21:26:38.763Z,35.79
2023-04-02T21:29:06.917Z,35.82
2023-04-02T21:31:37.431Z,35.95
2023-04-02T21:34:06.560Z,35.54
2023-04-02T21:36:40.679Z,35.08
2023-04-02T21:39:10.573Z,35.08
2023-04-02T21:41:40.431Z,35.45
2023-04-02T21:44:10.709Z,35.56
2023-04-02T21:46:39.295Z,35.30
2023-04-02T21:49:08.525Z,35.43
2023-04-02T21:51:37.649Z,35.57
2023-04-02T21:54:07.697Z,35.63
2023-04-02T21:56:39.437Z,35.52
2023-04-02T21:59:08.469Z,35.18
2023-04-02T22:01:38.608Z,35.12
2023-04-02T22:04:08.791Z,35.09
2023-04-02T22:06:40.693Z,35.41
2023-04-02T22:09:10.732Z,35.40
2023-04-02T22:11:44.812Z,35.36
2023-04-02T22:14:13.040Z,35.18
2023-04-02T22:16:41.719Z,35.52
2023-04-02T22:19:13.686Z,35.23
2023-04-02T22:21:41.984Z,35.20
2023-04-02T22:24:18.883Z,35.48
2023-04-02T22:26:47.051Z,35.61
2023-04-02T22:29:15.833Z,35.91
2023-04-02T22:31:44.012Z,36.01
2023-04-02T22:34:12.970Z,36.17
2023-04-02T22:36:41.410Z,35.98
2023-04-02T22:39:12.135Z,36.02
2023-04-02T22:41:41.065Z,35.76
2023-04-02T22:44:12.846Z,35.69
2023-04-02T22:46:41.647Z,35.56
2023-04-02T22:49:11.796Z,35.73
2023-04-02T22:51:40.135Z,35.70
2023-04-02T22:54:08.929Z,35.88
2023-04-02T22:56:37.689Z,36.29
2023-04-02T22:59:06.714Z,35.70
2023-04-02T23:01:35.770Z,36.36
2023-04-02T23:04:05.607Z,36.01
2023-04-02T23:06:35.049Z,36.19
2023-04-02T23:09:04.191Z,36.54
2023-04-02T23:11:34.957Z,36.29
2023-04-02T23:14:03.243Z,36.32
2023-04-02T23:16:31.544Z,36.36
2023-04-02T23:19:01.308Z,36.22
2023-04-02T23:21:30.157Z,36.42
2023-04-02T23:23:58.792Z,36.53
2023-04-02T23:26:31.434Z,36.46
2023-04-02T23:28:59.747Z,37.23
2023-04-02T23:31:27.962Z,37.54
2023-04-02T23:33:56.491Z,38.05
2023-04-02T23:36:29.156Z,38.03
2023-04-02T23:39:01.350Z,37.84
2023-04-02T23:41:30.566Z,38.13
2023-04-02T23:43:58.918Z,37.60
2023-04-02T23:46:27.216Z,37.44
2023-04-02T23:48:56.282Z,37.30
2023-04-02T23:51:24.688Z,37.33
2023-04-02T23:53:53.428Z,37.07
2023-04-02T23:56:23.076Z,37.08
2023-04-02T23:58:51.547Z,36.98
